Londonderry, United Kingdom
Current Conditions -  °F | °C
As of 3:20 PM on Thursday 30 Oct 2014 (Local Time) from EGAE Reporting Station
Broken Clouds Broken Clouds  
Wind Chill: 63°   Ceiling: 2200
Heat Index: 63°   Visibility: 6mi
Dew Point: 57°   Wind: 7mph
Humidity: 82%   Direction: 170°S
Pressure: 29.77"   Gusts: NA
Location:  54.99°N, 7.31°W
Report Text: EGAE 301520Z 17006KT 140V200 9999 SCT013 BKN022 17/14 Q1008
Loading
Personal Weather Stations






























Interactive Weather Map
Tropical Storm Tracking
New forecast layout! Learn more

10-Day Weather Forecast

Advertisements
Track Severe Weather on mobile